createdAt,value
2022-10-25T00:02:21.668Z,12.96
2022-10-25T00:05:07.830Z,12.93
2022-10-25T00:07:53.360Z,12.89
2022-10-25T00:10:38.851Z,12.88
2022-10-25T00:13:24.853Z,12.75
2022-10-25T00:16:15.182Z,12.85
2022-10-25T00:19:01.017Z,12.78
2022-10-25T00:21:46.541Z,12.77
2022-10-25T00:24:32.639Z,12.66
2022-10-25T00:27:18.171Z,12.59
2022-10-25T00:30:05.747Z,12.65
2022-10-25T00:32:52.826Z,12.49
2022-10-25T00:35:38.698Z,12.56
2022-10-25T00:38:24.169Z,12.57
2022-10-25T00:41:10.660Z,12.51
2022-10-25T00:44:17.584Z,12.46
2022-10-25T00:47:20.681Z,12.50
2022-10-25T00:50:19.119Z,12.43
2022-10-25T00:53:08.841Z,12.46
2022-10-25T00:56:01.030Z,12.45
2022-10-25T00:58:50.591Z,12.33
2022-10-25T01:01:37.518Z,12.42
2022-10-25T01:04:26.822Z,12.41
2022-10-25T01:07:12.177Z,12.33
2022-10-25T01:09:58.115Z,12.22
2022-10-25T01:12:46.405Z,12.25
2022-10-25T01:16:00.033Z,12.29
2022-10-25T01:18:58.576Z,12.15
2022-10-25T01:21:49.392Z,12.22
2022-10-25T01:24:58.113Z,12.19
2022-10-25T01:28:23.720Z,12.00
2022-10-25T01:31:17.051Z,12.11
2022-10-25T01:34:06.470Z,12.13
2022-10-25T01:37:04.143Z,12.12
2022-10-25T01:40:20.774Z,12.11
2022-10-25T01:43:44.294Z,12.08
2022-10-25T01:46:43.729Z,12.00
2022-10-25T01:49:50.923Z,11.94
2022-10-25T01:52:36.968Z,11.98
2022-10-25T01:55:27.309Z,11.95
2022-10-25T01:58:21.148Z,11.95
2022-10-25T02:01:28.993Z,11.90
2022-10-25T02:04:17.703Z,11.89
2022-10-25T02:07:23.750Z,11.83
2022-10-25T02:10:31.793Z,11.82
2022-10-25T02:13:36.265Z,11.80
2022-10-25T02:16:32.260Z,11.69
2022-10-25T02:19:22.473Z,11.73
2022-10-25T02:22:09.870Z,11.72
2022-10-25T02:24:56.889Z,11.61
2022-10-25T02:27:43.884Z,11.61
2022-10-25T02:30:30.533Z,11.60
2022-10-25T02:33:16.560Z,11.65
2022-10-25T02:36:14.340Z,11.73
2022-10-25T02:39:00.750Z,11.74
2022-10-25T02:41:46.141Z,11.57
2022-10-25T02:44:32.092Z,11.79
2022-10-25T02:47:17.724Z,11.81
2022-10-25T02:50:04.051Z,11.76
2022-10-25T02:52:49.739Z,11.89
2022-10-25T02:55:35.543Z,11.92
2022-10-25T02:58:22.713Z,11.93
2022-10-25T03:01:08.980Z,11.79
2022-10-25T03:03:54.905Z,11.90
2022-10-25T03:06:40.612Z,11.84
2022-10-25T03:09:25.998Z,11.89
2022-10-25T03:12:11.910Z,11.85
2022-10-25T03:14:57.777Z,11.82
2022-10-25T03:17:43.464Z,11.71
2022-10-25T03:20:29.189Z,11.69
2022-10-25T03:23:15.765Z,11.74
2022-10-25T03:26:01.264Z,11.74
2022-10-25T03:28:47.084Z,11.73
2022-10-25T03:31:32.600Z,11.50
2022-10-25T03:34:18.448Z,11.65
2022-10-25T03:37:03.970Z,11.63
2022-10-25T03:39:50.246Z,11.59
2022-10-25T03:42:35.750Z,11.37
2022-10-25T03:45:21.782Z,11.55
2022-10-25T03:48:07.709Z,11.49
2022-10-25T03:50:54.305Z,11.47
2022-10-25T03:53:41.177Z,11.37
2022-10-25T03:56:27.008Z,11.45
2022-10-25T03:59:12.551Z,11.34
2022-10-25T04:01:58.392Z,11.42
2022-10-25T04:04:44.176Z,11.34
2022-10-25T04:07:29.869Z,11.27
2022-10-25T04:10:15.265Z,11.27
2022-10-25T04:13:01.240Z,11.27
2022-10-25T04:15:46.508Z,11.30
2022-10-25T04:18:32.390Z,11.28
2022-10-25T04:21:17.869Z,11.25
2022-10-25T04:24:04.534Z,11.14
2022-10-25T04:26:50.512Z,11.13
2022-10-25T04:29:36.590Z,11.16
2022-10-25T04:32:21.940Z,11.14
2022-10-25T04:35:08.169Z,11.22
2022-10-25T04:37:57.200Z,11.17
2022-10-25T04:40:43.078Z,11.25
2022-10-25T04:43:28.860Z,11.26
2022-10-25T04:46:15.372Z,11.11
2022-10-25T04:49:01.126Z,11.23
2022-10-25T04:51:47.341Z,11.17
2022-10-25T04:54:33.193Z,11.19
2022-10-25T04:57:19.247Z,11.05
2022-10-25T05:00:04.814Z,11.17
2022-10-25T05:02:54.643Z,11.15
2022-10-25T05:05:40.246Z,11.03
2022-10-25T05:08:26.536Z,11.05
2022-10-25T05:11:14.352Z,11.14
2022-10-25T05:14:00.366Z,11.14
2022-10-25T05:16:45.904Z,11.12
2022-10-25T05:19:31.948Z,11.02
2022-10-25T05:22:17.326Z,11.17
2022-10-25T05:25:03.378Z,11.30
2022-10-25T05:27:48.699Z,11.32
2022-10-25T05:30:34.496Z,11.36
2022-10-25T05:33:19.854Z,11.31
2022-10-25T05:36:05.771Z,11.43
2022-10-25T05:38:51.119Z,11.44
2022-10-25T05:41:38.083Z,11.46
2022-10-25T05:44:23.755Z,11.50
2022-10-25T05:47:09.841Z,11.52
2022-10-25T05:49:55.863Z,11.44
2022-10-25T05:52:43.518Z,11.59
2022-10-25T05:55:29.257Z,11.61
2022-10-25T05:58:14.830Z,11.58
2022-10-25T06:01:01.116Z,11.63
2022-10-25T06:03:53.551Z,11.67
2022-10-25T06:06:40.073Z,11.69
2022-10-25T06:09:25.998Z,11.79
2022-10-25T06:12:11.323Z,11.80
2022-10-25T06:14:57.485Z,11.81
2022-10-25T06:17:42.975Z,11.90
2022-10-25T06:20:29.133Z,11.94
2022-10-25T06:23:15.177Z,11.90
2022-10-25T06:26:05.705Z,12.08
2022-10-25T06:28:56.797Z,12.06
2022-10-25T06:31:44.682Z,12.20
2022-10-25T06:34:30.292Z,12.23
2022-10-25T06:37:16.223Z,12.15
2022-10-25T06:40:01.723Z,12.32
2022-10-25T06:42:47.703Z,12.35
2022-10-25T06:45:33.277Z,12.43
2022-10-25T06:48:19.038Z,12.49
2022-10-25T06:51:06.223Z,12.59
2022-10-25T06:54:00.101Z,12.61
2022-10-25T06:56:45.862Z,12.67
2022-10-25T06:59:31.666Z,12.65
2022-10-25T07:02:17.370Z,12.75
2022-10-25T07:05:03.455Z,12.69
2022-10-25T07:07:49.627Z,12.83
2022-10-25T07:10:35.879Z,12.77
2022-10-25T07:13:21.784Z,12.81
2022-10-25T07:16:09.596Z,12.92
2022-10-25T07:18:59.799Z,13.02
2022-10-25T07:21:45.482Z,13.17
2022-10-25T07:24:31.397Z,13.16
2022-10-25T07:27:17.642Z,13.22
2022-10-25T07:30:03.322Z,13.18
2022-10-25T07:32:49.156Z,13.29
2022-10-25T07:35:41.968Z,13.33
2022-10-25T07:38:38.049Z,13.33
2022-10-25T07:41:24.755Z,13.38
2022-10-25T07:44:15.935Z,13.38
2022-10-25T07:47:03.021Z,13.34
2022-10-25T07:49:48.895Z,13.31
2022-10-25T07:52:34.666Z,13.34
2022-10-25T07:55:20.427Z,13.40
2022-10-25T07:58:07.608Z,13.45
2022-10-25T08:00:53.209Z,13.35
2022-10-25T08:03:38.744Z,13.47
2022-10-25T08:06:25.536Z,13.52
2022-10-25T08:09:26.531Z,13.50
2022-10-25T08:12:22.346Z,13.59
2022-10-25T08:15:08.599Z,13.77
2022-10-25T08:18:01.821Z,13.89
2022-10-25T08:21:03.950Z,13.97
2022-10-25T08:23:50.142Z,14.02
2022-10-25T08:26:37.011Z,14.24
2022-10-25T08:29:23.170Z,14.45
2022-10-25T08:32:08.966Z,14.48
2022-10-25T08:34:54.966Z,14.65
2022-10-25T08:37:40.618Z,14.86
2022-10-25T08:40:43.250Z,14.85
2022-10-25T08:43:39.052Z,14.96
2022-10-25T08:46:33.238Z,14.76
2022-10-25T08:49:25.506Z,14.60
2022-10-25T08:52:53.922Z,14.43
2022-10-25T08:55:58.784Z,14.20
2022-10-25T08:58:58.227Z,14.00
2022-10-25T09:01:47.873Z,13.89
2022-10-25T09:04:34.007Z,13.68
2022-10-25T09:08:04.398Z,13.73
2022-10-25T09:10:51.539Z,13.65
2022-10-25T09:13:39.873Z,13.58
2022-10-25T09:16:47.147Z,13.50
2022-10-25T09:19:35.683Z,13.38
2022-10-25T09:22:28.281Z,13.50
2022-10-25T09:25:16.879Z,13.50
2022-10-25T09:28:11.792Z,13.48
2022-10-25T09:30:59.525Z,13.47
2022-10-25T09:33:47.363Z,13.44
2022-10-25T09:36:41.352Z,13.51
2022-10-25T09:39:43.065Z,13.45
2022-10-25T09:42:34.116Z,13.65
2022-10-25T09:45:42.104Z,13.70
2022-10-25T09:48:49.099Z,13.73
2022-10-25T09:51:45.383Z,13.65
2022-10-25T09:54:35.542Z,13.64
2022-10-25T09:57:21.544Z,13.74
2022-10-25T10:00:09.381Z,13.64
2022-10-25T10:02:57.876Z,13.75
2022-10-25T10:05:50.608Z,13.72
2022-10-25T10:08:36.450Z,13.80
2022-10-25T10:11:21.987Z,13.74
2022-10-25T10:14:12.726Z,13.88
2022-10-25T10:16:59.738Z,13.82
2022-10-25T10:20:12.464Z,13.96
2022-10-25T10:22:58.192Z,13.88
2022-10-25T10:25:45.315Z,14.03
2022-10-25T10:28:31.018Z,13.99
2022-10-25T10:31:18.480Z,14.08
2022-10-25T10:34:04.469Z,14.03
2022-10-25T10:37:12.413Z,14.14
2022-10-25T10:40:22.951Z,14.17
2022-10-25T10:43:28.439Z,14.24
2022-10-25T10:46:15.623Z,14.22
2022-10-25T10:49:02.406Z,14.28
2022-10-25T10:51:48.018Z,14.25
2022-10-25T10:54:36.132Z,14.29
2022-10-25T10:57:30.206Z,14.39
2022-10-25T11:00:24.372Z,14.45
2022-10-25T11:03:35.954Z,14.57
2022-10-25T11:06:29.338Z,14.67
2022-10-25T11:09:22.157Z,14.62
2022-10-25T11:12:11.750Z,14.68
2022-10-25T11:14:57.148Z,14.85
2022-10-25T11:17:58.273Z,14.83
2022-10-25T11:20:53.924Z,15.01
2022-10-25T11:23:52.256Z,14.99
2022-10-25T11:26:56.316Z,15.12
2022-10-25T11:30:10.283Z,15.19
2022-10-25T11:33:17.705Z,15.25
2022-10-25T11:36:11.176Z,15.28
2022-10-25T11:39:30.141Z,15.18
2022-10-25T11:42:33.898Z,15.25
2022-10-25T11:45:35.772Z,15.18
2022-10-25T11:48:27.008Z,15.19
2022-10-25T11:51:40.214Z,15.14
2022-10-25T11:54:58.717Z,15.21
2022-10-25T11:57:57.220Z,15.10
2022-10-25T12:01:02.080Z,15.04
2022-10-25T12:03:53.397Z,15.02
2022-10-25T12:06:50.375Z,14.89
2022-10-25T12:09:51.468Z,14.70
2022-10-25T12:13:04.262Z,14.73
2022-10-25T12:15:52.821Z,14.55
2022-10-25T12:18:42.460Z,14.64
2022-10-25T12:21:35.584Z,14.52
2022-10-25T12:24:24.889Z,14.62
2022-10-25T12:27:11.691Z,14.65
2022-10-25T12:30:04.015Z,14.69
2022-10-25T12:32:54.133Z,14.69
2022-10-25T12:36:01.993Z,14.72
2022-10-25T12:38:47.352Z,14.66
2022-10-25T12:41:36.489Z,14.69
2022-10-25T12:44:43.347Z,14.84
2022-10-25T12:47:38.845Z,14.89
2022-10-25T12:50:54.510Z,14.92
2022-10-25T12:53:53.726Z,14.95
2022-10-25T12:57:00.782Z,14.94
2022-10-25T13:00:15.645Z,14.94
2022-10-25T13:03:04.308Z,14.92
2022-10-25T13:06:24.535Z,14.95
2022-10-25T13:09:21.001Z,14.91
2022-10-25T13:12:19.382Z,14.81
2022-10-25T13:15:05.410Z,14.77
2022-10-25T13:18:06.036Z,14.87
2022-10-25T13:20:52.503Z,14.81
2022-10-25T13:23:46.535Z,14.79
2022-10-25T13:26:33.181Z,14.75
2022-10-25T13:29:48.608Z,14.76
2022-10-25T13:32:42.108Z,14.64
2022-10-25T13:35:27.797Z,14.76
2022-10-25T13:38:21.128Z,14.64
2022-10-25T13:41:15.992Z,14.61
2022-10-25T13:44:05.333Z,14.78
2022-10-25T13:46:51.440Z,14.86
2022-10-25T13:49:42.300Z,14.77
2022-10-25T13:52:33.050Z,14.79
2022-10-25T13:55:21.516Z,14.64
2022-10-25T13:58:31.983Z,14.70
2022-10-25T14:01:18.776Z,14.62
2022-10-25T14:04:20.469Z,14.38
2022-10-25T14:07:45.006Z,14.50
2022-10-25T14:10:35.075Z,14.46
2022-10-25T14:13:28.300Z,14.34
2022-10-25T14:16:20.555Z,14.39
2022-10-25T14:19:14.605Z,14.23
2022-10-25T14:22:01.342Z,14.28
2022-10-25T14:24:49.720Z,14.23
2022-10-25T14:27:37.089Z,14.16
2022-10-25T14:30:29.674Z,14.18
2022-10-25T14:33:24.421Z,14.00
2022-10-25T14:36:21.829Z,14.06
2022-10-25T14:39:17.408Z,13.92
2022-10-25T14:42:03.927Z,13.90
2022-10-25T14:44:50.566Z,13.93
2022-10-25T14:47:36.744Z,13.91
2022-10-25T14:50:24.557Z,13.88
2022-10-25T14:53:15.663Z,13.88
2022-10-25T14:56:04.087Z,13.87
2022-10-25T14:58:50.466Z,13.84
2022-10-25T15:01:37.690Z,13.65
2022-10-25T15:04:33.115Z,13.63
2022-10-25T15:07:32.169Z,13.68
2022-10-25T15:10:45.920Z,13.59
2022-10-25T15:13:37.916Z,13.55
2022-10-25T15:16:30.671Z,13.47
2022-10-25T15:19:20.460Z,13.45
2022-10-25T15:22:10.588Z,13.32
2022-10-25T15:24:57.666Z,13.40
2022-10-25T15:27:44.178Z,13.39
2022-10-25T15:30:40.458Z,13.39
2022-10-25T15:33:28.814Z,13.33
2022-10-25T15:36:26.312Z,13.37
2022-10-25T15:39:25.290Z,13.25
2022-10-25T15:42:14.425Z,13.23
2022-10-25T15:45:01.111Z,13.25
2022-10-25T15:47:47.591Z,13.21
2022-10-25T15:50:33.937Z,13.29
2022-10-25T15:53:21.468Z,13.23
2022-10-25T15:56:10.989Z,13.21
2022-10-25T15:58:58.745Z,13.09
2022-10-25T16:01:48.085Z,13.14
2022-10-25T16:04:33.876Z,13.11
2022-10-25T16:07:19.789Z,13.00
2022-10-25T16:10:05.881Z,12.94
2022-10-25T16:12:58.519Z,12.98
2022-10-25T16:15:45.435Z,12.89
2022-10-25T16:18:31.234Z,12.76
2022-10-25T16:21:18.230Z,12.71
2022-10-25T16:24:03.984Z,12.75
2022-10-25T16:26:51.233Z,12.70
2022-10-25T16:29:37.127Z,12.63
2022-10-25T16:32:22.994Z,12.50
2022-10-25T16:35:09.321Z,12.56
2022-10-25T16:37:55.189Z,12.56
2022-10-25T16:40:40.618Z,12.55
2022-10-25T16:43:26.196Z,12.47
2022-10-25T16:46:11.559Z,12.53
2022-10-25T16:48:59.601Z,12.57
2022-10-25T16:51:48.900Z,12.50
2022-10-25T16:54:34.759Z,12.59
2022-10-25T16:57:20.297Z,12.50
2022-10-25T17:00:07.059Z,12.53
2022-10-25T17:02:53.171Z,12.61
2022-10-25T17:05:39.862Z,12.61
2022-10-25T17:08:25.374Z,12.64
2022-10-25T17:11:13.371Z,12.66
2022-10-25T17:13:58.892Z,12.61
2022-10-25T17:16:44.841Z,12.61
2022-10-25T17:19:30.615Z,12.63
2022-10-25T17:22:16.542Z,12.72
2022-10-25T17:25:01.837Z,12.64
2022-10-25T17:27:50.868Z,12.73
2022-10-25T17:30:41.944Z,12.66
2022-10-25T17:33:28.170Z,12.72
2022-10-25T17:36:18.218Z,12.75
2022-10-25T17:39:06.289Z,12.75
2022-10-25T17:41:51.847Z,12.67
2022-10-25T17:44:37.591Z,12.75
2022-10-25T17:47:22.933Z,12.75
2022-10-25T17:50:10.371Z,12.75
2022-10-25T17:52:56.169Z,12.64
2022-10-25T17:55:42.157Z,12.74
2022-10-25T17:58:27.681Z,12.71
2022-10-25T18:01:16.616Z,12.63
2022-10-25T18:04:02.562Z,12.61
2022-10-25T18:06:48.157Z,12.59
2022-10-25T18:09:33.456Z,12.65
2022-10-25T18:12:19.302Z,12.68
2022-10-25T18:15:05.760Z,12.62
2022-10-25T18:17:51.803Z,12.58
2022-10-25T18:20:40.460Z,12.60
2022-10-25T18:23:26.297Z,12.63
2022-10-25T18:26:13.040Z,12.64
2022-10-25T18:28:59.006Z,12.57
2022-10-25T18:31:44.420Z,12.60
2022-10-25T18:34:30.471Z,12.56
2022-10-25T18:37:16.006Z,12.60
2022-10-25T18:40:01.746Z,12.54
2022-10-25T18:42:47.210Z,12.50
2022-10-25T18:45:35.875Z,12.46
2022-10-25T18:48:21.544Z,12.56
2022-10-25T18:51:10.318Z,12.54
2022-10-25T18:54:00.563Z,12.35
2022-10-25T18:56:46.430Z,12.44
2022-10-25T18:59:31.801Z,12.42
2022-10-25T19:02:18.156Z,12.53
2022-10-25T19:05:04.511Z,12.51
2022-10-25T19:07:50.904Z,12.52
2022-10-25T19:10:41.100Z,12.45
2022-10-25T19:13:28.178Z,12.54
2022-10-25T19:16:13.619Z,12.55
2022-10-25T19:19:07.211Z,12.57
2022-10-25T19:21:52.942Z,12.57
2022-10-25T19:24:38.663Z,12.58
2022-10-25T19:27:24.100Z,12.51
2022-10-25T19:30:10.665Z,12.48
2022-10-25T19:32:56.093Z,12.51
2022-10-25T19:35:41.889Z,12.52
2022-10-25T19:38:27.569Z,12.45
2022-10-25T19:41:16.298Z,12.48
2022-10-25T19:44:01.993Z,12.56
2022-10-25T19:46:49.718Z,12.43
2022-10-25T19:49:35.145Z,12.49
2022-10-25T19:52:21.422Z,12.42
2022-10-25T19:55:07.534Z,12.40
2022-10-25T19:57:53.362Z,12.36
2022-10-25T20:00:38.973Z,12.22
2022-10-25T20:03:25.026Z,12.18
2022-10-25T20:06:13.583Z,12.10
2022-10-25T20:09:00.697Z,12.15
2022-10-25T20:11:46.250Z,12.08
2022-10-25T20:14:33.452Z,11.97
2022-10-25T20:17:19.215Z,11.88
2022-10-25T20:20:05.627Z,11.91
2022-10-25T20:22:51.009Z,11.79
2022-10-25T20:25:37.070Z,11.75
2022-10-25T20:28:22.422Z,11.77
2022-10-25T20:31:08.502Z,11.72
2022-10-25T20:33:54.353Z,11.60
2022-10-25T20:36:40.170Z,11.62
2022-10-25T20:39:25.909Z,11.47
2022-10-25T20:42:11.709Z,11.49
2022-10-25T20:44:57.433Z,11.44
2022-10-25T20:47:44.859Z,11.40
2022-10-25T20:50:31.098Z,11.27
2022-10-25T20:53:17.242Z,11.21
2022-10-25T20:56:03.529Z,11.17
2022-10-25T20:58:49.724Z,11.19
2022-10-25T21:01:35.936Z,11.10
2022-10-25T21:04:30.550Z,11.06
2022-10-25T21:07:31.758Z,11.01
2022-10-25T21:10:18.041Z,10.97
2022-10-25T21:13:03.814Z,10.85
2022-10-25T21:15:50.394Z,10.93
2022-10-25T21:18:37.225Z,10.91
2022-10-25T21:21:23.001Z,10.85
2022-10-25T21:24:10.273Z,10.85
2022-10-25T21:26:55.996Z,10.74
2022-10-25T21:29:41.857Z,10.76
2022-10-25T21:32:27.845Z,10.74
2022-10-25T21:35:13.345Z,10.59
2022-10-25T21:37:59.138Z,10.61
2022-10-25T21:40:44.488Z,10.58
2022-10-25T21:43:30.339Z,10.45
2022-10-25T21:46:16.962Z,10.45
2022-10-25T21:49:02.428Z,10.43
2022-10-25T21:51:47.958Z,10.41
2022-10-25T21:54:33.774Z,10.38
2022-10-25T21:57:19.198Z,10.42
2022-10-25T22:00:05.619Z,10.28
2022-10-25T22:02:58.229Z,10.31
2022-10-25T22:05:44.237Z,10.09
2022-10-25T22:08:30.096Z,10.20
2022-10-25T22:11:18.317Z,10.18
2022-10-25T22:14:06.276Z,10.09
2022-10-25T22:16:52.268Z,10.09
2022-10-25T22:19:38.052Z,9.99
2022-10-25T22:22:23.875Z,10.03
2022-10-25T22:25:09.491Z,9.91
2022-10-25T22:27:55.447Z,10.00
2022-10-25T22:30:41.141Z,9.88
2022-10-25T22:33:27.036Z,9.95
2022-10-25T22:36:13.608Z,9.88
2022-10-25T22:38:59.910Z,9.93
2022-10-25T22:41:46.251Z,9.94
2022-10-25T22:44:32.249Z,9.91
2022-10-25T22:47:17.758Z,9.94
2022-10-25T22:50:03.579Z,9.89
2022-10-25T22:52:48.946Z,9.90
2022-10-25T22:55:34.643Z,9.85
2022-10-25T22:58:20.452Z,9.85
2022-10-25T23:01:14.359Z,9.73
2022-10-25T23:04:00.964Z,9.83
2022-10-25T23:06:47.386Z,9.71
2022-10-25T23:09:33.474Z,9.80
2022-10-25T23:12:19.521Z,9.67
2022-10-25T23:15:05.810Z,9.65
2022-10-25T23:17:51.611Z,9.68
2022-10-25T23:20:37.458Z,9.62
2022-10-25T23:23:23.623Z,9.53
2022-10-25T23:26:13.002Z,9.47
2022-10-25T23:28:59.325Z,9.29
2022-10-25T23:31:45.008Z,9.27
2022-10-25T23:34:32.244Z,9.34
2022-10-25T23:37:18.045Z,9.33
2022-10-25T23:40:04.341Z,9.23
2022-10-25T23:42:49.860Z,9.17
2022-10-25T23:45:35.541Z,9.25
2022-10-25T23:48:20.945Z,9.16
2022-10-25T23:51:09.640Z,9.25
2022-10-25T23:53:55.409Z,9.21
2022-10-25T23:56:41.315Z,9.09
2022-10-25T23:59:26.781Z,9.09
